Time;durP1;ratioP1;P1;durP2;ratioP2;P2;SDS_P1;SDS_P2;PMS_P1;PMS_P2;Temp;Humidity;BMP_temperature;BMP_pressure;BME280_temperature;BME280_humidity;BME280_pressure;Samples;Min_cycle;Max_cycle;Signal;HPM_P1;HPM_P2
2023/07/14 00:00:23;;;;;;;45.20;40.60;;;;;;;24.02;100.00;100656.66;5045333;28;20052;-78
2023/07/14 00:02:52;;;;;;;46.05;41.85;;;;;;;23.96;100.00;100644.31;5046409;28;20053;-77
2023/07/14 00:05:22;;;;;;;49.20;44.03;;;;;;;23.90;100.00;100640.06;5051122;28;20048;-77
2023/07/14 00:07:52;;;;;;;51.35;46.67;;;;;;;24.09;100.00;100632.69;5045976;28;20344;-77
2023/07/14 00:10:22;;;;;;;50.05;45.25;;;;;;;23.96;100.00;100618.00;5042122;28;20055;-77
2023/07/14 00:12:51;;;;;;;50.58;45.45;;;;;;;24.08;100.00;100624.84;5047211;28;20044;-77
2023/07/14 00:15:19;;;;;;;51.80;47.10;;;;;;;24.19;100.00;100618.13;5045713;28;20139;-77
2023/07/14 00:17:46;;;;;;;48.15;43.67;;;;;;;24.29;100.00;100596.22;5051799;28;20048;-79
2023/07/14 00:20:22;;;;;;;48.67;44.20;;;;;;;24.27;100.00;100606.59;5050998;28;20432;-78
2023/07/14 00:22:51;;;;;;;47.92;42.90;;;;;;;23.65;100.00;100616.88;5040901;28;20485;-79
2023/07/14 00:25:18;;;;;;;50.90;46.20;;;;;;;23.85;100.00;100605.72;5034195;28;20056;-78
2023/07/14 00:27:45;;;;;;;47.97;43.28;;;;;;;23.51;100.00;100609.50;5048315;28;20056;-78
2023/07/14 00:30:18;;;;;;;49.53;44.78;;;;;;;23.55;100.00;100598.84;5050687;28;20351;-78
2023/07/14 00:32:44;;;;;;;;;;;;;;;23.84;100.00;100612.22;5044056;28;20052;-78
2023/07/14 00:35:26;;;;;;;48.10;43.40;;;;;;;23.84;100.00;100611.41;5041201;28;20316;-78
2023/07/14 00:37:57;;;;;;;52.45;47.40;;;;;;;23.66;100.00;100619.28;5042597;28;20044;-79
2023/07/14 00:40:30;;;;;;;51.80;47.10;;;;;;;23.38;100.00;100621.06;5037764;28;20061;-78
2023/07/14 00:42:59;;;;;;;63.95;58.63;;;;;;;23.67;100.00;100628.22;5038456;28;20072;-79
2023/07/14 00:45:28;;;;;;;53.47;48.67;;;;;;;23.76;100.00;100624.56;5043357;28;20045;-78
2023/07/14 00:48:03;;;;;;;47.28;42.72;;;;;;;23.52;100.00;100627.34;5040998;28;20049;-79
2023/07/14 00:50:35;;;;;;;47.38;42.97;;;;;;;23.49;100.00;100629.84;5038995;28;20651;-78
2023/07/14 00:53:10;;;;;;;49.28;44.88;;;;;;;23.42;100.00;100632.94;5043509;28;20046;-77
2023/07/14 00:55:42;;;;;;;53.70;49.05;;;;;;;23.47;100.00;100632.03;5038114;28;20443;-78
2023/07/14 00:58:21;;;;;;;50.00;45.53;;;;;;;23.45;100.00;100643.19;5039849;28;20041;-77
2023/07/14 01:01:02;;;;;;;59.13;54.08;;;;;;;23.16;100.00;100645.22;5034984;28;20053;-76
2023/07/14 01:03:30;;;;;;;50.83;46.40;;;;;;;23.30;100.00;100646.13;5046676;28;20060;-77
2023/07/14 01:05:58;;;;;;;55.22;50.38;;;;;;;23.30;100.00;100646.94;5041503;28;20045;-77
2023/07/14 01:08:28;;;;;;;58.13;52.60;;;;;;;23.34;100.00;100646.34;5039046;28;20049;-77
2023/07/14 01:10:55;;;;;;;60.92;55.88;;;;;;;23.06;100.00;100651.59;5045715;28;20056;-78
2023/07/14 01:13:23;;;;;;;61.22;55.92;;;;;;;23.05;100.00;100648.06;5041546;28;20065;-79
2023/07/14 01:15:51;;;;;;;60.53;55.15;;;;;;;23.29;100.00;100644.50;5036855;28;20103;-79
2023/07/14 01:18:18;;;;;;;57.47;51.90;;;;;;;23.26;100.00;100637.75;5048907;28;20450;-79
2023/07/14 01:20:45;;;;;;;57.03;51.92;;;;;;;23.26;100.00;100640.47;5049119;28;20049;-78
2023/07/14 01:23:26;;;;;;;52.80;48.15;;;;;;;23.24;100.00;100633.75;5036362;28;20045;-78
2023/07/14 01:26:13;;;;;;;51.67;46.80;;;;;;;23.03;100.00;100639.44;5047187;28;20059;-76
2023/07/14 01:28:41;;;;;;;57.70;52.15;;;;;;;22.88;100.00;100655.06;5046350;28;20428;-76
2023/07/14 01:31:12;;;;;;;55.60;50.45;;;;;;;23.03;100.00;100649.47;5046401;28;20436;-77
2023/07/14 01:33:39;;;;;;;59.92;54.42;;;;;;;22.96;100.00;100663.34;5040597;28;20072;-77
2023/07/14 01:36:06;;;;;;;67.35;61.90;;;;;;;22.91;100.00;100663.41;5038256;28;20052;-76
2023/07/14 01:38:34;;;;;;;61.58;55.80;;;;;;;22.61;100.00;100667.25;5048615;28;20088;-77
2023/07/14 01:41:04;;;;;;;62.55;57.03;;;;;;;22.46;100.00;100670.94;5048654;28;20128;-77
2023/07/14 01:43:31;;;;;;;53.15;48.33;;;;;;;22.73;100.00;100675.00;5037786;28;20050;-76
2023/07/14 01:46:02;;;;;;;52.92;47.85;;;;;;;22.85;100.00;100681.59;5040233;28;20056;-78
2023/07/14 01:48:34;;;;;;;54.88;49.75;;;;;;;22.87;100.00;100681.28;5043185;28;20045;-78
2023/07/14 01:51:06;;;;;;;64.78;58.63;;;;;;;22.77;100.00;100690.34;5049570;28;20052;-78
2023/07/14 01:53:37;;;;;;;56.05;50.97;;;;;;;22.87;100.00;100708.38;5049061;28;20683;-78
2023/07/14 01:56:07;;;;;;;57.13;51.92;;;;;;;22.99;100.00;100710.72;5049258;28;20041;-76
2023/07/14 01:58:38;;;;;;;57.53;52.03;;;;;;;22.50;100.00;100714.47;5033031;28;20152;-78
2023/07/14 02:01:07;;;;;;;53.70;48.40;;;;;;;22.75;100.00;100718.81;5049219;28;20053;-78
2023/07/14 02:03:37;;;;;;;60.42;55.08;;;;;;;22.73;100.00;100739.97;5048886;28;20061;-78
2023/07/14 02:06:04;;;;;;;51.05;46.25;;;;;;;22.97;100.00;100726.47;5048937;28;20057;-78
2023/07/14 02:08:31;;;;;;;56.13;51.13;;;;;;;23.18;100.00;100746.78;5042677;28;20045;-78
2023/07/14 02:10:58;;;;;;;56.83;51.40;;;;;;;23.23;100.00;100735.06;5043887;28;20484;-77
2023/07/14 02:13:26;;;;;;;56.08;50.35;;;;;;;23.31;100.00;100726.31;5049257;28;20040;-76
2023/07/14 02:15:54;;;;;;;63.45;57.67;;;;;;;22.79;100.00;100727.97;5048725;28;20071;-76
2023/07/14 02:18:27;;;;;;;68.50;62.00;;;;;;;22.41;100.00;100734.00;5041229;28;20045;-77
2023/07/14 02:20:56;;;;;;;64.68;58.75;;;;;;;22.43;100.00;100739.16;5045801;28;20071;-77
2023/07/14 02:23:26;;;;;;;71.47;65.07;;;;;;;22.31;100.00;100736.81;5035357;28;20049;-77
2023/07/14 02:26:07;;;;;;;59.97;54.50;;;;;;;22.46;100.00;100733.16;5031438;28;20056;-77
2023/07/14 02:28:34;;;;;;;58.65;53.33;;;;;;;22.31;100.00;100734.13;5049120;28;20049;-78
2023/07/14 02:31:10;;;;;;;64.22;58.47;;;;;;;22.34;100.00;100738.16;5046757;28;20493;-76
2023/07/14 02:33:42;;;;;;;55.00;49.70;;;;;;;22.47;100.00;100747.50;5034434;28;20056;-78
2023/07/14 02:36:19;;;;;;;72.35;66.07;;;;;;;22.23;100.00;100769.06;5037739;28;20048;-78
2023/07/14 02:38:49;;;;;;;58.80;52.90;;;;;;;22.48;100.00;100774.28;5038932;28;20535;-78
2023/07/14 02:41:23;;;;;;;70.35;64.07;;;;;;;22.71;100.00;100793.56;5043491;28;20053;-78
2023/07/14 02:43:53;;;;;;;60.95;55.05;;;;;;;22.79;100.00;100790.25;5043159;28;20052;-77
2023/07/14 02:46:24;;;;;;;48.95;43.95;;;;;;;22.53;100.00;100800.50;5041473;28;20122;-77
2023/07/14 02:48:53;;;;;;;48.33;43.30;;;;;;;22.72;100.00;100811.41;5048617;28;20056;-77
2023/07/14 02:51:20;;;;;;;48.67;43.50;;;;;;;23.12;100.00;100806.72;5047290;28;20517;-77
2023/07/14 02:53:47;;;;;;;47.17;42.08;;;;;;;23.02;100.00;100803.03;5051194;28;20052;-78
2023/07/14 02:56:14;;;;;;;47.50;42.72;;;;;;;22.95;100.00;100807.97;5043915;28;20107;-78
2023/07/14 02:58:47;;;;;;;45.13;40.75;;;;;;;23.06;100.00;100812.22;5039382;28;20049;-78
2023/07/14 03:01:15;;;;;;;66.63;61.35;;;;;;;23.44;100.00;100816.91;5049312;28;20527;-78
2023/07/14 03:03:42;;;;;;;68.45;63.00;;;;;;;23.85;100.00;100803.69;5052508;28;20045;-77
2023/07/14 03:06:13;;;;;;;70.95;65.40;;;;;;;23.97;100.00;100800.53;5050633;28;20041;-77
2023/07/14 03:08:40;;;;;;;68.28;62.78;;;;;;;24.21;100.00;100803.97;5044994;28;20148;-77
2023/07/14 03:11:07;;;;;;;68.28;62.25;;;;;;;24.23;100.00;100800.94;5046743;28;20076;-79
2023/07/14 03:13:35;;;;;;;76.85;71.07;;;;;;;24.23;100.00;100811.78;5052546;28;20539;-77
2023/07/14 03:16:02;;;;;;;80.35;74.93;;;;;;;24.42;100.00;100804.47;5051943;28;20059;-78
2023/07/14 03:18:28;;;;;;;85.70;79.53;;;;;;;24.53;100.00;100815.97;5048846;28;20493;-78
2023/07/14 03:20:59;;;;;;;48.10;43.95;;;;;;;24.40;100.00;100827.56;5044499;28;20060;-78
2023/07/14 03:23:27;;;;;;;44.78;40.88;;;;;;;24.37;100.00;100850.66;5039071;28;20042;-78
2023/07/14 03:25:54;;;;;;;46.40;41.97;;;;;;;24.45;100.00;100847.31;5035407;28;20048;-78
2023/07/14 03:28:21;;;;;;;48.85;44.20;;;;;;;24.23;100.00;100866.88;5051874;28;20142;-78
2023/07/14 03:30:48;;;;;;;50.72;46.13;;;;;;;24.45;100.00;100850.03;5049326;28;20072;-78
2023/07/14 03:33:15;;;;;;;48.00;43.45;;;;;;;24.40;100.00;100852.78;5038159;28;20045;-78
2023/07/14 03:35:42;;;;;;;52.20;47.20;;;;;;;24.36;100.00;100869.97;5048106;28;20440;-78
2023/07/14 03:38:09;;;;;;;55.58;50.70;;;;;;;24.27;100.00;100866.28;5051696;28;20446;-78
2023/07/14 03:40:37;;;;;;;50.92;46.30;;;;;;;24.43;100.00;100867.72;5051768;28;20057;-78
2023/07/14 03:43:04;;;;;;;48.08;43.20;;;;;;;24.36;100.00;100891.69;5037416;28;20051;-77
2023/07/14 03:45:31;;;;;;;51.22;46.47;;;;;;;24.32;100.00;100907.72;5040322;28;20063;-78
2023/07/14 03:47:58;;;;;;;49.10;44.45;;;;;;;24.14;100.00;100920.19;5037123;28;20127;-77
2023/07/14 03:50:25;;;;;;;47.50;42.35;;;;;;;24.43;100.00;100944.50;5046346;28;20049;-77
2023/07/14 03:52:52;;;;;;;49.15;45.22;;;;;;;24.77;100.00;100962.47;5050404;28;20542;-77
2023/07/14 03:55:20;;;;;;;46.08;41.45;;;;;;;24.90;100.00;100966.34;5041491;28;20119;-77
2023/07/14 03:57:48;;;;;;;45.20;41.15;;;;;;;25.03;100.00;100981.09;5036661;28;20493;-77
2023/07/14 04:00:17;;;;;;;40.92;37.03;;;;;;;25.00;100.00;101001.53;5045454;28;20496;-78
2023/07/14 04:02:45;;;;;;;38.85;34.95;;;;;;;24.85;100.00;101034.34;5039474;28;20048;-78
2023/07/14 04:05:13;;;;;;;37.28;33.22;;;;;;;24.89;100.00;101060.63;5038654;28;20045;-78
2023/07/14 04:07:41;;;;;;;35.45;31.70;;;;;;;25.18;100.00;101097.75;5047457;28;20451;-77
2023/07/14 04:10:10;;;;;;;34.47;30.85;;;;;;;25.40;100.00;101131.66;5041589;28;20041;-77
2023/07/14 04:12:37;;;;;;;37.15;33.45;;;;;;;25.31;100.00;101166.88;5044113;28;20049;-77
2023/07/14 04:15:07;;;;;;;37.40;33.90;;;;;;;25.55;100.00;101210.28;5039626;28;20512;-77
2023/07/14 04:17:34;;;;;;;37.85;33.85;;;;;;;25.82;100.00;101182.44;5043460;28;20055;-77
2023/07/14 04:20:00;;;;;;;36.85;30.92;;;;;;;26.13;100.00;101075.75;5043625;28;20424;-77
2023/07/14 04:22:27;;;;;;;35.03;31.65;;;;;;;25.44;100.00;101035.59;5039059;28;20045;-77
2023/07/14 04:24:54;;;;;;;36.13;32.70;;;;;;;25.16;100.00;101083.63;5037732;28;20064;-77
2023/07/14 04:27:21;;;;;;;30.25;27.00;;;;;;;26.04;100.00;101095.50;5048824;28;20436;-77
2023/07/14 04:29:48;;;;;;;30.63;27.85;;;;;;;25.92;100.00;101069.88;5050884;28;20508;-77
2023/07/14 04:32:16;;;;;;;27.65;24.80;;;;;;;26.28;100.00;101067.28;5043175;28;20055;-78
2023/07/14 04:34:43;;;;;;;50.28;46.10;;;;;;;25.75;100.00;101078.59;5042667;28;20389;-77
2023/07/14 04:37:10;;;;;;;27.55;24.77;;;;;;;25.83;100.00;101075.22;5046525;28;20052;-77
2023/07/14 04:39:37;;;;;;;25.63;23.45;;;;;;;25.74;100.00;101061.47;5049464;28;20060;-77
2023/07/14 04:42:05;;;;;;;28.80;23.30;;;;;;;25.92;100.00;101053.56;5041954;28;20072;-76
2023/07/14 04:44:33;;;;;;;28.98;26.48;;;;;;;25.96;100.00;101079.88;5041844;28;20041;-77
2023/07/14 04:47:00;;;;;;;28.85;26.42;;;;;;;25.71;100.00;101085.75;5044205;28;20419;-76
2023/07/14 04:49:28;;;;;;;26.63;24.23;;;;;;;25.85;100.00;101073.00;5039147;28;20045;-76
2023/07/14 04:51:55;;;;;;;32.00;24.63;;;;;;;25.72;100.00;101077.28;5046277;28;20057;-77
2023/07/14 04:54:23;;;;;;;26.55;23.90;;;;;;;25.75;100.00;101093.00;5045100;28;20048;-77
2023/07/14 04:56:51;;;;;;;26.50;20.67;;;;;;;25.87;100.00;101089.84;5040979;28;20308;-76
2023/07/14 04:59:18;;;;;;;28.20;20.88;;;;;;;25.60;100.00;101090.56;5038097;28;20523;-76
2023/07/14 05:01:45;;;;;;;23.75;20.05;;;;;;;25.46;100.00;101108.72;5041090;28;20046;-77
2023/07/14 05:04:12;;;;;;;23.77;21.30;;;;;;;25.18;100.00;101115.97;5042861;28;20049;-77
2023/07/14 05:06:41;;;;;;;22.42;20.25;;;;;;;25.32;100.00;101101.31;5036350;28;20054;-77
2023/07/14 05:09:08;;;;;;;23.42;20.58;;;;;;;24.99;100.00;101083.31;5037163;28;20428;-77
2023/07/14 05:11:35;;;;;;;25.55;22.50;;;;;;;24.84;100.00;101103.34;5041295;28;20421;-76
2023/07/14 05:14:04;;;;;;;24.35;22.13;;;;;;;25.00;100.00;101103.97;5048931;28;20052;-77
2023/07/14 05:16:31;;;;;;;26.60;24.00;;;;;;;25.06;100.00;101083.78;5046337;28;20102;-77
2023/07/14 05:18:57;;;;;;;22.40;20.23;;;;;;;24.59;100.00;101083.56;5037423;28;20531;-77
2023/07/14 05:21:24;;;;;;;26.38;23.58;;;;;;;24.62;100.00;101099.28;5041757;28;20052;-77
2023/07/14 05:23:52;;;;;;;26.02;21.60;;;;;;;25.10;100.00;101110.03;5042304;28;20042;-77
2023/07/14 05:26:19;;;;;;;24.42;21.67;;;;;;;24.99;100.00;101096.88;5034387;28;20047;-78
2023/07/14 05:28:46;;;;;;;23.00;20.52;;;;;;;24.90;100.00;101102.16;5047487;28;20436;-78
2023/07/14 05:31:14;;;;;;;23.90;21.48;;;;;;;25.20;100.00;101102.88;5040746;28;20056;-77
2023/07/14 05:33:41;;;;;;;22.02;19.92;;;;;;;25.13;100.00;101100.53;5035574;28;20042;-77
2023/07/14 05:36:08;;;;;;;21.52;19.60;;;;;;;24.94;100.00;101105.13;5038178;28;20052;-77
2023/07/14 05:38:36;;;;;;;21.95;19.90;;;;;;;25.20;100.00;101117.25;5041927;28;20060;-76
2023/07/14 05:41:08;;;;;;;24.83;22.48;;;;;;;25.41;100.00;101120.47;5045413;28;20053;-77
2023/07/14 05:43:34;;;;;;;22.90;20.88;;;;;;;25.79;100.00;101132.09;5038241;28;20132;-76
2023/07/14 05:46:01;;;;;;;24.05;21.98;;;;;;;25.35;100.00;101135.25;5036928;28;20052;-77
2023/07/14 05:48:28;;;;;;;23.23;21.23;;;;;;;25.05;100.00;101126.44;5038078;28;20071;-77
2023/07/14 05:50:55;;;;;;;21.75;19.23;;;;;;;25.31;100.00;101128.81;5041237;28;20054;-76
2023/07/14 05:53:22;;;;;;;21.48;19.17;;;;;;;25.55;100.00;101106.94;5039584;28;20052;-76
2023/07/14 05:55:49;;;;;;;21.38;19.23;;;;;;;25.52;100.00;101083.88;5042185;28;20051;-77
2023/07/14 05:58:17;;;;;;;21.23;19.17;;;;;;;25.65;100.00;101090.44;5039805;28;20053;-77
2023/07/14 06:00:44;;;;;;;23.98;21.48;;;;;;;25.39;100.00;101106.41;5043487;28;20053;-77
2023/07/14 06:03:13;;;;;;;23.25;19.48;;;;;;;25.63;100.00;101105.44;5041603;28;20056;-77
2023/07/14 06:05:41;;;;;;;22.92;20.83;;;;;;;25.73;100.00;101095.22;5044298;28;20106;-76
2023/07/14 06:08:07;;;;;;;23.30;21.10;;;;;;;25.77;100.00;101107.09;5040723;28;20589;-77
2023/07/14 06:10:35;;;;;;;22.77;20.67;;;;;;;25.81;100.00;101120.94;5040988;28;20417;-77
2023/07/14 06:13:02;;;;;;;31.02;26.40;;;;;;;26.46;100.00;101114.56;5037999;28;20136;-77
2023/07/14 06:15:31;;;;;;;28.95;26.60;;;;;;;26.56;100.00;101119.03;5036091;28;20045;-77
2023/07/14 06:17:58;;;;;;;24.67;22.10;;;;;;;26.03;100.00;101123.81;5041366;28;20047;-77
2023/07/14 06:20:25;;;;;;;24.88;22.45;;;;;;;26.12;100.00;101113.06;5041715;28;20056;-77
2023/07/14 06:22:52;;;;;;;24.05;21.55;;;;;;;26.57;100.00;101107.84;5040274;28;20049;-77
2023/07/14 06:25:19;;;;;;;28.75;23.05;;;;;;;26.35;100.00;101105.00;5038179;28;20436;-77
2023/07/14 06:27:46;;;;;;;24.48;21.90;;;;;;;26.49;100.00;101109.34;5047747;28;20508;-77
2023/07/14 06:30:14;;;;;;;23.77;21.50;;;;;;;26.59;100.00;101107.53;5047605;28;20128;-77
2023/07/14 06:32:42;;;;;;;27.73;24.13;;;;;;;26.86;100.00;101106.69;5043953;28;20564;-77
2023/07/14 06:35:10;;;;;;;25.15;22.55;;;;;;;26.79;100.00;101104.38;5045662;28;20053;-77
2023/07/14 06:37:37;;;;;;;22.45;20.25;;;;;;;26.74;100.00;101107.19;5040495;28;20244;-77
2023/07/14 06:40:07;;;;;;;23.25;21.02;;;;;;;26.67;100.00;101096.72;5040242;28;20098;-78
2023/07/14 06:42:34;;;;;;;24.85;22.85;;;;;;;26.91;100.00;101101.13;5047506;28;20045;-77
2023/07/14 06:45:02;;;;;;;25.80;23.40;;;;;;;26.73;100.00;101100.97;5041823;28;20041;-78
2023/07/14 06:47:28;;;;;;;25.45;23.27;;;;;;;26.58;100.00;101108.66;5046529;28;20434;-76
2023/07/14 06:49:57;;;;;;;27.52;24.95;;;;;;;27.10;100.00;101106.41;5042859;28;20045;-77
2023/07/14 06:52:24;;;;;;;27.98;25.02;;;;;;;27.12;100.00;101093.28;5052299;28;20044;-77
2023/07/14 06:54:51;;;;;;;28.52;25.90;;;;;;;27.29;100.00;101092.63;5050054;28;20052;-77
2023/07/14 06:57:18;;;;;;;27.70;25.00;;;;;;;27.27;100.00;101082.06;5044321;28;20135;-77
2023/07/14 06:59:45;;;;;;;28.95;25.92;;;;;;;27.32;100.00;101078.38;5041621;28;20480;-78
2023/07/14 07:02:12;;;;;;;29.42;26.50;;;;;;;27.54;100.00;101077.59;5043810;28;20055;-77
2023/07/14 07:04:39;;;;;;;26.77;24.30;;;;;;;27.72;100.00;101070.31;5048725;28;20045;-77
2023/07/14 07:07:07;;;;;;;27.50;24.55;;;;;;;27.76;100.00;101074.00;5047809;28;20053;-78
2023/07/14 07:09:34;;;;;;;28.98;26.00;;;;;;;27.88;100.00;101070.75;5047218;28;20061;-77
2023/07/14 07:12:01;;;;;;;29.70;26.83;;;;;;;28.18;100.00;101069.09;4991362;28;20056;-78
2023/07/14 07:14:29;;;;;;;30.65;27.55;;;;;;;28.11;100.00;101074.19;5051751;28;20440;-77
2023/07/14 07:16:56;;;;;;;28.88;26.15;;;;;;;28.05;100.00;101074.34;5050788;28;20103;-76
2023/07/14 07:19:22;;;;;;;24.90;22.45;;;;;;;27.96;100.00;101069.94;5042866;28;20048;-78
2023/07/14 07:21:49;;;;;;;25.17;22.63;;;;;;;27.97;100.00;101069.66;5042276;28;20216;-76
2023/07/14 07:24:20;;;;;;;25.35;22.67;;;;;;;28.25;100.00;101075.69;5050066;28;20048;-77
2023/07/14 07:26:47;;;;;;;24.50;22.10;;;;;;;28.29;100.00;101067.66;5050106;28;20056;-78
2023/07/14 07:29:14;;;;;;;24.67;22.40;;;;;;;27.98;100.00;101070.44;5043828;28;20053;-77
2023/07/14 07:31:41;;;;;;;23.95;21.65;;;;;;;27.96;100.00;101068.06;5043371;28;20427;-78
2023/07/14 07:34:08;;;;;;;25.02;22.70;;;;;;;28.04;100.00;101063.72;5042221;28;20045;-78
2023/07/14 07:36:35;;;;;;;26.48;24.02;;;;;;;28.51;100.00;101064.06;5045486;28;20145;-77
2023/07/14 07:39:02;;;;;;;25.42;23.02;;;;;;;28.93;100.00;101067.16;5042718;28;20045;-77
2023/07/14 07:41:30;;;;;;;26.63;24.27;;;;;;;29.02;100.00;101078.94;5046293;28;20047;-77
2023/07/14 07:43:57;;;;;;;27.40;25.10;;;;;;;29.16;100.00;101067.81;5042494;28;20501;-78
2023/07/14 07:46:28;;;;;;;26.27;24.27;;;;;;;29.27;100.00;101077.31;5039896;28;20495;-77
2023/07/14 07:48:55;;;;;;;25.50;23.40;;;;;;;29.24;100.00;101083.44;5036704;28;20429;-77
2023/07/14 07:51:22;;;;;;;24.90;22.70;;;;;;;29.63;100.00;101073.41;5051373;28;20052;-77
2023/07/14 07:53:48;;;;;;;23.75;21.42;;;;;;;29.67;100.00;101083.38;5050793;28;20053;-77
2023/07/14 07:56:15;;;;;;;26.38;23.65;;;;;;;29.73;100.00;101081.25;5047109;28;20736;-76
2023/07/14 07:58:44;;;;;;;27.75;25.25;;;;;;;29.63;100.00;101073.41;5043416;28;20477;-77
2023/07/14 08:01:18;;;;;;;27.30;24.70;;;;;;;29.67;100.00;101071.63;5045001;28;20041;-76
2023/07/14 08:03:45;;;;;;;24.60;22.35;;;;;;;29.82;100.00;101073.03;5038284;28;20061;-77
2023/07/14 08:06:13;;;;;;;25.90;23.60;;;;;;;29.42;100.00;101067.78;5050361;28;20520;-76
2023/07/14 08:08:42;;;;;;;25.70;23.60;;;;;;;29.52;100.00;101061.97;5046244;28;20409;-77
2023/07/14 08:11:10;;;;;;;24.05;22.05;;;;;;;29.85;100.00;101064.97;5041813;28;20041;-77
2023/07/14 08:13:37;;;;;;;24.92;22.63;;;;;;;29.98;100.00;101070.53;5044791;28;20045;-77
2023/07/14 08:16:06;;;;;;;28.63;26.25;;;;;;;30.00;100.00;101076.50;5040697;28;20107;-77
2023/07/14 08:18:34;;;;;;;29.05;26.67;;;;;;;30.12;100.00;101080.16;5037953;28;20509;-77
2023/07/14 08:21:02;;;;;;;28.27;26.17;;;;;;;30.09;100.00;101071.78;5043137;28;20053;-76
2023/07/14 08:23:29;;;;;;;31.90;29.30;;;;;;;29.75;100.00;101075.47;5042378;28;20056;-76
2023/07/14 08:25:59;;;;;;;31.10;28.85;;;;;;;29.72;100.00;101067.91;5041010;28;20068;-77
2023/07/14 08:28:27;;;;;;;34.03;30.88;;;;;;;29.88;100.00;101077.19;5042253;28;20051;-77
2023/07/14 08:30:56;;;;;;;33.80;31.15;;;;;;;29.07;100.00;101086.16;5049214;28;20122;-77
2023/07/14 08:33:25;;;;;;;37.80;34.75;;;;;;;29.61;100.00;101081.94;5039967;28;20045;-78
2023/07/14 08:35:53;;;;;;;34.65;31.70;;;;;;;30.03;100.00;101082.13;5042098;28;20238;-78
2023/07/14 08:38:20;;;;;;;35.53;32.42;;;;;;;29.99;100.00;101083.91;5048652;28;20037;-77
2023/07/14 08:40:51;;;;;;;33.97;31.35;;;;;;;30.12;100.00;101077.41;5049390;28;20429;-77
2023/07/14 08:43:29;;;;;;;36.07;33.10;;;;;;;29.62;100.00;101078.09;5044006;28;20460;-78
2023/07/14 08:46:01;;;;;;;33.47;30.95;;;;;;;30.24;100.00;101076.75;5038274;28;20664;-77
2023/07/14 08:48:37;;;;;;;32.13;29.58;;;;;;;29.42;100.00;101071.34;4692404;28;10000269;-77
2023/07/14 08:51:16;;;;;;;32.63;30.05;;;;;;;29.84;100.00;101065.31;5042210;28;20041;-76
2023/07/14 08:53:48;;;;;;;30.30;27.75;;;;;;;30.00;100.00;101066.34;5035794;28;20057;-76
2023/07/14 08:56:18;;;;;;;30.35;27.38;;;;;;;30.12;100.00;101062.91;5043546;28;20342;-77
2023/07/14 08:58:48;;;;;;;29.58;26.88;;;;;;;30.25;100.00;101050.94;5042857;28;20168;-78
2023/07/14 09:01:26;;;;;;;29.10;26.80;;;;;;;30.86;100.00;101049.75;5045145;28;20111;-78
2023/07/14 09:03:58;;;;;;;29.83;27.23;;;;;;;30.38;100.00;101048.28;5045323;28;20519;-78
2023/07/14 09:06:32;;;;;;;28.45;25.80;;;;;;;30.63;100.00;101052.00;5047468;28;20056;-77
2023/07/14 09:08:59;;;;;;;29.67;26.60;;;;;;;30.48;100.00;101040.50;5045832;28;20052;-78
2023/07/14 09:11:59;;;;;;;29.63;26.77;;;;;;;30.23;100.00;101041.44;5042099;28;20045;-78
2023/07/14 09:14:50;;;;;;;27.73;25.00;;;;;;;30.45;100.00;101035.69;5046928;28;20077;-77
2023/07/14 09:17:25;;;;;;;25.95;23.10;;;;;;;30.90;100.00;101037.00;5047686;28;20041;-78
2023/07/14 09:20:22;;;;;;;25.48;23.08;;;;;;;30.55;100.00;101032.53;5045481;28;20044;-78
2023/07/14 09:22:57;;;;;;;27.35;24.98;;;;;;;31.15;100.00;101029.66;5038093;28;20048;-78
2023/07/14 09:25:32;;;;;;;33.30;30.55;;;;;;;31.09;100.00;101028.25;5038137;28;20041;-78
2023/07/14 09:28:01;;;;;;;33.42;30.90;;;;;;;30.59;100.00;101021.69;5048631;28;20085;-77
2023/07/14 09:30:29;;;;;;;35.33;32.63;;;;;;;30.85;100.00;101016.06;5045252;28;20052;-78
2023/07/14 09:33:02;;;;;;;32.70;30.05;;;;;;;30.76;100.00;101018.84;5043863;28;20464;-78
2023/07/14 09:35:31;;;;;;;33.05;30.60;;;;;;;31.11;100.00;101020.50;5040581;28;20159;-80
2023/07/14 09:38:05;;;;;;;33.25;30.80;;;;;;;31.20;100.00;101010.25;5049189;28;20055;-79
2023/07/14 09:40:36;;;;;;;37.67;34.95;;;;;;;31.24;100.00;101013.91;5049023;28;20554;-80
2023/07/14 09:43:07;;;;;;;39.80;36.83;;;;;;;31.17;100.00;101008.19;5037774;28;20485;-79
2023/07/14 09:45:36;;;;;;;38.50;35.28;;;;;;;31.24;100.00;101009.22;5039477;28;20419;-80
2023/07/14 09:48:07;;;;;;;39.47;36.97;;;;;;;31.37;100.00;101006.53;5039547;28;20041;-79
2023/07/14 09:50:38;;;;;;;37.13;34.17;;;;;;;31.82;100.00;101000.19;5036238;28;20547;-80
2023/07/14 09:53:07;;;;;;;38.47;35.65;;;;;;;31.86;100.00;101007.41;5042455;28;20045;-79
2023/07/14 09:55:49;;;;;;;38.95;36.00;;;;;;;32.11;100.00;100994.47;5042199;28;20064;-81
2023/07/14 09:58:17;;;;;;;41.17;38.08;;;;;;;31.37;100.00;101015.56;5038056;28;20128;-78
2023/07/14 10:00:49;;;;;;;33.70;30.75;;;;;;;31.42;100.00;101001.63;5044287;28;20049;-76
2023/07/14 10:03:19;;;;;;;29.15;26.40;;;;;;;31.55;100.00;100996.94;5052665;28;20045;-76
2023/07/14 10:05:52;;;;;;;28.50;25.70;;;;;;;32.03;100.00;100986.34;5039582;28;20046;-76
2023/07/14 10:08:33;;;;;;;30.88;28.17;;;;;;;32.56;100.00;100995.44;5047735;28;20044;-77
2023/07/14 10:11:13;;;;;;;28.52;26.13;;;;;;;31.99;100.00;100988.19;5038242;28;20479;-77
2023/07/14 10:13:40;;;;;;;29.98;27.55;;;;;;;32.50;100.00;100989.38;5041762;28;20041;-77
2023/07/14 10:16:14;;;;;;;30.42;28.02;;;;;;;32.35;100.00;100995.59;5049408;28;20037;-77
2023/07/14 10:18:50;;;;;;;33.78;31.38;;;;;;;32.64;100.00;100999.97;5044025;28;20060;-77
2023/07/14 10:21:25;;;;;;;31.30;29.15;;;;;;;32.23;100.00;100984.63;5046050;28;20051;-77
2023/07/14 10:24:05;;;;;;;32.35;29.75;;;;;;;32.49;100.00;100979.53;5044791;28;20056;-77
2023/07/14 10:26:34;;;;;;;31.55;29.30;;;;;;;32.19;100.00;100991.94;5052817;28;20071;-79
2023/07/14 10:29:05;;;;;;;32.85;30.42;;;;;;;31.38;100.00;100980.69;5049284;28;20421;-79
2023/07/14 10:31:38;;;;;;;33.42;30.80;;;;;;;32.44;100.00;100970.69;5050937;28;20060;-78
2023/07/14 10:34:43;;;;;;;31.80;29.70;;;;;;;32.66;100.00;100974.91;5048837;28;20056;-78
2023/07/14 10:37:24;;;;;;;33.83;31.52;;;;;;;32.30;100.00;100977.38;5033770;28;20052;-76
2023/07/14 10:39:56;;;;;;;33.42;30.77;;;;;;;32.76;100.00;100969.69;5042603;28;20068;-77
2023/07/14 10:42:26;;;;;;;;;;;;;;;33.45;100.00;100969.56;5051533;28;20051;-77
2023/07/14 10:44:56;;;;;;;40.28;37.35;;;;;;;32.56;100.00;100962.47;5045453;28;20307;-76
2023/07/14 10:47:28;;;;;;;30.75;28.45;;;;;;;33.61;100.00;100961.31;5046324;28;20575;-77
2023/07/14 10:50:03;;;;;;;38.22;35.42;;;;;;;33.57;100.00;100968.69;5044742;28;20044;-77
2023/07/14 10:52:37;;;;;;;37.22;34.38;;;;;;;33.14;100.00;100962.09;5048730;28;20059;-78
2023/07/14 10:55:14;;;;;;;35.75;33.15;;;;;;;33.12;100.00;100964.38;5042626;28;20056;-77
2023/07/14 10:57:46;;;;;;;36.25;33.45;;;;;;;31.85;100.00;100961.84;5048215;28;20045;-75
2023/07/14 11:00:21;;;;;;;;;;;;;;;33.46;100.00;100966.44;5048184;28;20049;-76
2023/07/14 11:02:54;;;;;;;35.72;32.42;;;;;;;32.19;100.00;100962.50;5045534;28;19928;-76
2023/07/14 11:05:24;;;;;;;28.95;26.08;;;;;;;32.70;100.00;100967.53;5048253;28;20084;-76
2023/07/14 11:07:54;;;;;;;35.10;32.22;;;;;;;32.11;100.00;100960.72;5046127;28;20045;-76
2023/07/14 11:10:40;;;;;;;36.75;34.13;;;;;;;33.32;100.00;100954.28;5045087;28;20492;-76
2023/07/14 11:13:19;;;;;;;36.70;34.10;;;;;;;33.11;100.00;100965.56;5048890;28;20045;-77